sensor_id;sensor_type;location;lat;lon;timestamp;P1;durP1;ratioP1;P2;durP2;ratioP2
1296;SDS011;641;48.492;9.184;2023-03-21T00:00:37;7.97;;;2.77;;
1296;SDS011;641;48.492;9.184;2023-03-21T00:03:03;7.00;;;2.60;;
1296;SDS011;641;48.492;9.184;2023-03-21T00:05:30;10.20;;;2.77;;
1296;SDS011;641;48.492;9.184;2023-03-21T00:07:56;7.93;;;2.87;;
1296;SDS011;641;48.492;9.184;2023-03-21T00:10:22;9.07;;;2.27;;
1296;SDS011;641;48.492;9.184;2023-03-21T00:12:48;7.30;;;2.00;;
1296;SDS011;641;48.492;9.184;2023-03-21T00:15:22;8.20;;;2.93;;
1296;SDS011;641;48.492;9.184;2023-03-21T00:17:50;8.33;;;3.00;;
1296;SDS011;641;48.492;9.184;2023-03-21T00:20:16;11.60;;;3.30;;
1296;SDS011;641;48.492;9.184;2023-03-21T00:22:41;8.90;;;2.90;;
1296;SDS011;641;48.492;9.184;2023-03-21T00:25:08;13.17;;;3.07;;
1296;SDS011;641;48.492;9.184;2023-03-21T00:27:35;10.70;;;2.90;;
1296;SDS011;641;48.492;9.184;2023-03-21T00:30:01;7.40;;;2.50;;
1296;SDS011;641;48.492;9.184;2023-03-21T00:32:27;10.17;;;2.90;;
1296;SDS011;641;48.492;9.184;2023-03-21T00:34:53;10.23;;;3.20;;
1296;SDS011;641;48.492;9.184;2023-03-21T00:37:19;8.23;;;2.33;;
1296;SDS011;641;48.492;9.184;2023-03-21T00:39:46;7.00;;;2.10;;
1296;SDS011;641;48.492;9.184;2023-03-21T00:42:16;8.57;;;2.70;;
1296;SDS011;641;48.492;9.184;2023-03-21T00:44:42;7.97;;;2.43;;
1296;SDS011;641;48.492;9.184;2023-03-21T00:47:10;8.07;;;2.20;;
1296;SDS011;641;48.492;9.184;2023-03-21T00:49:36;9.40;;;3.47;;
1296;SDS011;641;48.492;9.184;2023-03-21T00:52:03;9.17;;;3.37;;
1296;SDS011;641;48.492;9.184;2023-03-21T00:54:31;10.97;;;3.33;;
1296;SDS011;641;48.492;9.184;2023-03-21T00:56:57;10.83;;;3.70;;
1296;SDS011;641;48.492;9.184;2023-03-21T00:59:23;9.47;;;4.50;;
1296;SDS011;641;48.492;9.184;2023-03-21T01:01:49;10.00;;;3.37;;
1296;SDS011;641;48.492;9.184;2023-03-21T01:04:17;12.07;;;4.30;;
1296;SDS011;641;48.492;9.184;2023-03-21T01:06:43;11.10;;;3.70;;
1296;SDS011;641;48.492;9.184;2023-03-21T01:09:11;9.13;;;3.90;;
1296;SDS011;641;48.492;9.184;2023-03-21T01:11:37;10.80;;;5.17;;
1296;SDS011;641;48.492;9.184;2023-03-21T01:14:04;10.97;;;4.90;;
1296;SDS011;641;48.492;9.184;2023-03-21T01:16:30;11.37;;;3.77;;
1296;SDS011;641;48.492;9.184;2023-03-21T01:18:56;11.90;;;4.27;;
1296;SDS011;641;48.492;9.184;2023-03-21T01:21:22;11.43;;;4.70;;
1296;SDS011;641;48.492;9.184;2023-03-21T01:23:48;11.80;;;4.40;;
1296;SDS011;641;48.492;9.184;2023-03-21T01:26:14;12.80;;;6.30;;
1296;SDS011;641;48.492;9.184;2023-03-21T01:28:41;11.03;;;5.30;;
1296;SDS011;641;48.492;9.184;2023-03-21T01:31:08;16.93;;;6.73;;
1296;SDS011;641;48.492;9.184;2023-03-21T01:33:35;13.57;;;6.17;;
1296;SDS011;641;48.492;9.184;2023-03-21T01:36:02;9.90;;;4.80;;
1296;SDS011;641;48.492;9.184;2023-03-21T01:38:28;11.80;;;5.93;;
1296;SDS011;641;48.492;9.184;2023-03-21T01:40:54;10.93;;;5.10;;
1296;SDS011;641;48.492;9.184;2023-03-21T01:43:25;9.87;;;4.90;;
1296;SDS011;641;48.492;9.184;2023-03-21T01:46:06;11.20;;;4.93;;
1296;SDS011;641;48.492;9.184;2023-03-21T01:48:33;11.50;;;5.33;;
1296;SDS011;641;48.492;9.184;2023-03-21T01:51:01;10.40;;;5.70;;
1296;SDS011;641;48.492;9.184;2023-03-21T01:53:27;10.53;;;5.00;;
1296;SDS011;641;48.492;9.184;2023-03-21T01:55:56;10.03;;;4.33;;
1296;SDS011;641;48.492;9.184;2023-03-21T01:58:22;10.00;;;4.43;;
1296;SDS011;641;48.492;9.184;2023-03-21T02:00:48;9.97;;;4.07;;
1296;SDS011;641;48.492;9.184;2023-03-21T02:03:15;7.80;;;3.60;;
1296;SDS011;641;48.492;9.184;2023-03-21T02:08:27;9.23;;;3.73;;
1296;SDS011;641;48.492;9.184;2023-03-21T02:10:53;10.17;;;3.63;;
1296;SDS011;641;48.492;9.184;2023-03-21T02:13:19;7.90;;;3.43;;
1296;SDS011;641;48.492;9.184;2023-03-21T02:15:49;13.47;;;3.20;;
1296;SDS011;641;48.492;9.184;2023-03-21T02:18:23;8.37;;;2.97;;
1296;SDS011;641;48.492;9.184;2023-03-21T02:21:06;8.10;;;2.83;;
1296;SDS011;641;48.492;9.184;2023-03-21T02:28:48;13.13;;;4.03;;
1296;SDS011;641;48.492;9.184;2023-03-21T02:39:14;10.10;;;5.23;;
1296;SDS011;641;48.492;9.184;2023-03-21T02:41:49;12.60;;;5.07;;
1296;SDS011;641;48.492;9.184;2023-03-21T02:44:25;12.00;;;4.97;;
1296;SDS011;641;48.492;9.184;2023-03-21T02:47:03;11.10;;;3.87;;
1296;SDS011;641;48.492;9.184;2023-03-21T02:49:39;12.30;;;4.07;;
1296;SDS011;641;48.492;9.184;2023-03-21T02:52:08;10.57;;;4.60;;
1296;SDS011;641;48.492;9.184;2023-03-21T02:54:36;10.10;;;4.50;;
1296;SDS011;641;48.492;9.184;2023-03-21T02:57:03;13.50;;;4.20;;
1296;SDS011;641;48.492;9.184;2023-03-21T02:59:29;11.30;;;4.33;;
1296;SDS011;641;48.492;9.184;2023-03-21T03:01:56;8.60;;;3.93;;
1296;SDS011;641;48.492;9.184;2023-03-21T03:04:24;9.10;;;3.63;;
1296;SDS011;641;48.492;9.184;2023-03-21T03:14:52;8.33;;;3.60;;
1296;SDS011;641;48.492;9.184;2023-03-21T03:17:31;11.00;;;4.00;;
1296;SDS011;641;48.492;9.184;2023-03-21T03:22:39;8.07;;;3.30;;
1296;SDS011;641;48.492;9.184;2023-03-21T03:25:08;9.97;;;3.57;;
1296;SDS011;641;48.492;9.184;2023-03-21T03:27:39;9.73;;;4.00;;
1296;SDS011;641;48.492;9.184;2023-03-21T03:30:07;9.23;;;3.60;;
1296;SDS011;641;48.492;9.184;2023-03-21T03:32:51;9.10;;;4.17;;
1296;SDS011;641;48.492;9.184;2023-03-21T03:35:18;9.07;;;3.93;;
1296;SDS011;641;48.492;9.184;2023-03-21T03:37:47;9.00;;;3.90;;
1296;SDS011;641;48.492;9.184;2023-03-21T03:40:17;9.63;;;4.00;;
1296;SDS011;641;48.492;9.184;2023-03-21T03:42:50;10.30;;;3.73;;
1296;SDS011;641;48.492;9.184;2023-03-21T03:45:17;10.60;;;4.30;;
1296;SDS011;641;48.492;9.184;2023-03-21T03:50:19;13.40;;;4.27;;
1296;SDS011;641;48.492;9.184;2023-03-21T03:52:51;8.83;;;3.57;;
1296;SDS011;641;48.492;9.184;2023-03-21T03:55:17;12.50;;;3.93;;
1296;SDS011;641;48.492;9.184;2023-03-21T03:57:45;11.03;;;4.10;;
1296;SDS011;641;48.492;9.184;2023-03-21T04:00:12;9.27;;;3.43;;
1296;SDS011;641;48.492;9.184;2023-03-21T04:02:39;7.67;;;2.97;;
1296;SDS011;641;48.492;9.184;2023-03-21T04:05:06;8.30;;;3.50;;
1296;SDS011;641;48.492;9.184;2023-03-21T04:07:32;10.80;;;3.90;;
1296;SDS011;641;48.492;9.184;2023-03-21T04:09:58;9.03;;;3.30;;
1296;SDS011;641;48.492;9.184;2023-03-21T04:12:24;11.37;;;3.50;;
1296;SDS011;641;48.492;9.184;2023-03-21T04:14:50;9.53;;;3.80;;
1296;SDS011;641;48.492;9.184;2023-03-21T04:17:16;9.23;;;3.67;;
1296;SDS011;641;48.492;9.184;2023-03-21T04:19:43;9.00;;;3.50;;
1296;SDS011;641;48.492;9.184;2023-03-21T04:22:10;7.67;;;3.20;;
1296;SDS011;641;48.492;9.184;2023-03-21T04:24:36;9.20;;;3.43;;
1296;SDS011;641;48.492;9.184;2023-03-21T04:27:03;8.80;;;3.90;;
1296;SDS011;641;48.492;9.184;2023-03-21T04:29:30;8.40;;;3.50;;
1296;SDS011;641;48.492;9.184;2023-03-21T04:31:56;8.60;;;3.73;;
1296;SDS011;641;48.492;9.184;2023-03-21T04:34:22;9.10;;;4.30;;
1296;SDS011;641;48.492;9.184;2023-03-21T04:36:52;9.40;;;4.37;;
1296;SDS011;641;48.492;9.184;2023-03-21T04:39:18;9.83;;;4.70;;
1296;SDS011;641;48.492;9.184;2023-03-21T04:41:44;14.77;;;4.53;;
1296;SDS011;641;48.492;9.184;2023-03-21T04:44:11;12.10;;;4.50;;
1296;SDS011;641;48.492;9.184;2023-03-21T04:46:37;10.60;;;3.93;;
1296;SDS011;641;48.492;9.184;2023-03-21T04:49:04;10.07;;;4.20;;
1296;SDS011;641;48.492;9.184;2023-03-21T04:51:33;10.17;;;4.13;;
1296;SDS011;641;48.492;9.184;2023-03-21T04:53:59;8.67;;;3.40;;
1296;SDS011;641;48.492;9.184;2023-03-21T04:56:26;11.77;;;3.83;;
1296;SDS011;641;48.492;9.184;2023-03-21T04:58:57;10.27;;;3.90;;
1296;SDS011;641;48.492;9.184;2023-03-21T05:01:23;9.00;;;4.13;;
1296;SDS011;641;48.492;9.184;2023-03-21T05:03:49;8.40;;;3.30;;
1296;SDS011;641;48.492;9.184;2023-03-21T05:06:15;10.93;;;3.97;;
1296;SDS011;641;48.492;9.184;2023-03-21T05:08:42;7.50;;;3.10;;
1296;SDS011;641;48.492;9.184;2023-03-21T05:11:08;10.83;;;3.87;;
1296;SDS011;641;48.492;9.184;2023-03-21T05:13:35;8.80;;;4.27;;
1296;SDS011;641;48.492;9.184;2023-03-21T05:16:01;9.10;;;3.23;;
1296;SDS011;641;48.492;9.184;2023-03-21T05:18:26;8.57;;;2.73;;
1296;SDS011;641;48.492;9.184;2023-03-21T05:20:54;10.83;;;4.73;;
1296;SDS011;641;48.492;9.184;2023-03-21T05:23:22;13.03;;;4.20;;
1296;SDS011;641;48.492;9.184;2023-03-21T05:25:48;10.57;;;5.07;;
1296;SDS011;641;48.492;9.184;2023-03-21T05:28:15;9.77;;;4.60;;
1296;SDS011;641;48.492;9.184;2023-03-21T05:30:44;9.23;;;4.00;;
1296;SDS011;641;48.492;9.184;2023-03-21T05:33:11;9.30;;;3.87;;
1296;SDS011;641;48.492;9.184;2023-03-21T05:35:37;9.40;;;3.83;;
1296;SDS011;641;48.492;9.184;2023-03-21T05:38:03;8.47;;;3.23;;
1296;SDS011;641;48.492;9.184;2023-03-21T05:40:29;10.37;;;4.57;;
1296;SDS011;641;48.492;9.184;2023-03-21T05:42:55;12.07;;;4.20;;
1296;SDS011;641;48.492;9.184;2023-03-21T05:45:21;8.70;;;3.40;;
1296;SDS011;641;48.492;9.184;2023-03-21T05:47:47;9.70;;;3.90;;
1296;SDS011;641;48.492;9.184;2023-03-21T05:50:13;10.87;;;3.63;;
1296;SDS011;641;48.492;9.184;2023-03-21T05:52:39;9.53;;;4.30;;
1296;SDS011;641;48.492;9.184;2023-03-21T05:55:06;9.70;;;4.03;;
1296;SDS011;641;48.492;9.184;2023-03-21T05:57:32;12.67;;;3.90;;
1296;SDS011;641;48.492;9.184;2023-03-21T06:00:03;10.20;;;4.10;;
1296;SDS011;641;48.492;9.184;2023-03-21T06:02:30;12.27;;;3.67;;
1296;SDS011;641;48.492;9.184;2023-03-21T06:04:56;9.03;;;4.20;;
1296;SDS011;641;48.492;9.184;2023-03-21T06:07:22;11.37;;;3.70;;
1296;SDS011;641;48.492;9.184;2023-03-21T06:09:48;10.53;;;3.60;;
1296;SDS011;641;48.492;9.184;2023-03-21T06:12:14;10.60;;;4.17;;
1296;SDS011;641;48.492;9.184;2023-03-21T06:14:40;11.03;;;4.10;;
1296;SDS011;641;48.492;9.184;2023-03-21T06:17:06;9.70;;;4.30;;
1296;SDS011;641;48.492;9.184;2023-03-21T06:19:32;8.30;;;3.50;;
1296;SDS011;641;48.492;9.184;2023-03-21T06:21:58;10.67;;;4.33;;
1296;SDS011;641;48.492;9.184;2023-03-21T06:24:24;8.23;;;3.50;;
1296;SDS011;641;48.492;9.184;2023-03-21T06:26:50;11.07;;;4.37;;
1296;SDS011;641;48.492;9.184;2023-03-21T06:29:16;10.27;;;4.37;;
1296;SDS011;641;48.492;9.184;2023-03-21T06:31:42;11.00;;;4.00;;
1296;SDS011;641;48.492;9.184;2023-03-21T06:34:08;11.17;;;4.27;;
1296;SDS011;641;48.492;9.184;2023-03-21T06:36:35;10.33;;;3.50;;
1296;SDS011;641;48.492;9.184;2023-03-21T06:39:01;10.23;;;4.10;;
1296;SDS011;641;48.492;9.184;2023-03-21T06:41:27;14.00;;;4.63;;
1296;SDS011;641;48.492;9.184;2023-03-21T06:43:53;12.00;;;4.70;;
1296;SDS011;641;48.492;9.184;2023-03-21T06:46:19;9.97;;;4.37;;
1296;SDS011;641;48.492;9.184;2023-03-21T06:48:45;10.13;;;4.63;;
1296;SDS011;641;48.492;9.184;2023-03-21T06:51:13;8.93;;;4.27;;
1296;SDS011;641;48.492;9.184;2023-03-21T06:53:39;9.57;;;4.37;;
1296;SDS011;641;48.492;9.184;2023-03-21T06:56:05;9.43;;;4.37;;
1296;SDS011;641;48.492;9.184;2023-03-21T06:58:34;12.73;;;4.93;;
1296;SDS011;641;48.492;9.184;2023-03-21T07:01:00;9.17;;;3.97;;
1296;SDS011;641;48.492;9.184;2023-03-21T07:03:27;8.80;;;3.83;;
1296;SDS011;641;48.492;9.184;2023-03-21T07:05:53;10.23;;;3.90;;
1296;SDS011;641;48.492;9.184;2023-03-21T07:08:20;8.70;;;4.10;;
1296;SDS011;641;48.492;9.184;2023-03-21T07:10:46;9.77;;;4.20;;
1296;SDS011;641;48.492;9.184;2023-03-21T07:13:12;10.30;;;3.50;;
1296;SDS011;641;48.492;9.184;2023-03-21T07:15:38;9.80;;;3.80;;
1296;SDS011;641;48.492;9.184;2023-03-21T07:18:05;11.20;;;3.90;;
1296;SDS011;641;48.492;9.184;2023-03-21T07:20:31;8.97;;;3.50;;
1296;SDS011;641;48.492;9.184;2023-03-21T07:22:57;8.37;;;3.57;;
1296;SDS011;641;48.492;9.184;2023-03-21T07:25:23;9.13;;;3.50;;
1296;SDS011;641;48.492;9.184;2023-03-21T07:27:49;9.77;;;3.20;;
1296;SDS011;641;48.492;9.184;2023-03-21T07:30:16;9.80;;;3.90;;
1296;SDS011;641;48.492;9.184;2023-03-21T07:32:42;9.93;;;3.43;;
1296;SDS011;641;48.492;9.184;2023-03-21T07:35:10;9.20;;;3.20;;
1296;SDS011;641;48.492;9.184;2023-03-21T07:37:36;15.47;;;3.90;;
1296;SDS011;641;48.492;9.184;2023-03-21T07:40:02;10.07;;;3.80;;
1296;SDS011;641;48.492;9.184;2023-03-21T07:42:35;9.70;;;3.97;;
1296;SDS011;641;48.492;9.184;2023-03-21T07:45:01;8.50;;;3.13;;
1296;SDS011;641;48.492;9.184;2023-03-21T07:47:28;8.13;;;3.30;;
1296;SDS011;641;48.492;9.184;2023-03-21T07:49:54;10.60;;;3.30;;
1296;SDS011;641;48.492;9.184;2023-03-21T07:52:20;10.60;;;3.70;;
1296;SDS011;641;48.492;9.184;2023-03-21T07:54:46;12.63;;;4.73;;
1296;SDS011;641;48.492;9.184;2023-03-21T07:57:12;10.60;;;4.17;;
1296;SDS011;641;48.492;9.184;2023-03-21T07:59:38;8.63;;;3.60;;
1296;SDS011;641;48.492;9.184;2023-03-21T08:02:04;14.20;;;4.10;;
1296;SDS011;641;48.492;9.184;2023-03-21T08:04:31;7.73;;;3.00;;
1296;SDS011;641;48.492;9.184;2023-03-21T08:06:58;9.03;;;3.10;;
1296;SDS011;641;48.492;9.184;2023-03-21T08:09:25;13.87;;;3.63;;
1296;SDS011;641;48.492;9.184;2023-03-21T08:11:51;10.90;;;3.53;;
1296;SDS011;641;48.492;9.184;2023-03-21T08:14:17;10.27;;;4.27;;
1296;SDS011;641;48.492;9.184;2023-03-21T08:16:43;9.57;;;3.73;;
1296;SDS011;641;48.492;9.184;2023-03-21T08:19:09;9.67;;;3.30;;
1296;SDS011;641;48.492;9.184;2023-03-21T08:21:35;9.43;;;3.40;;
1296;SDS011;641;48.492;9.184;2023-03-21T08:24:03;8.70;;;2.80;;
1296;SDS011;641;48.492;9.184;2023-03-21T08:26:29;8.60;;;3.40;;
1296;SDS011;641;48.492;9.184;2023-03-21T08:28:56;8.00;;;3.33;;
1296;SDS011;641;48.492;9.184;2023-03-21T08:31:22;8.23;;;2.90;;
1296;SDS011;641;48.492;9.184;2023-03-21T08:33:48;9.10;;;3.57;;
1296;SDS011;641;48.492;9.184;2023-03-21T08:36:19;10.03;;;3.50;;
1296;SDS011;641;48.492;9.184;2023-03-21T08:38:45;8.47;;;2.70;;
1296;SDS011;641;48.492;9.184;2023-03-21T08:41:12;10.27;;;2.70;;
1296;SDS011;641;48.492;9.184;2023-03-21T08:43:38;7.77;;;2.47;;
1296;SDS011;641;48.492;9.184;2023-03-21T08:46:04;7.67;;;2.80;;
1296;SDS011;641;48.492;9.184;2023-03-21T08:48:30;9.70;;;3.13;;
1296;SDS011;641;48.492;9.184;2023-03-21T08:50:58;8.27;;;2.67;;
1296;SDS011;641;48.492;9.184;2023-03-21T08:53:24;8.77;;;3.10;;
1296;SDS011;641;48.492;9.184;2023-03-21T08:55:50;9.10;;;2.70;;
1296;SDS011;641;48.492;9.184;2023-03-21T08:58:16;7.10;;;2.60;;
1296;SDS011;641;48.492;9.184;2023-03-21T09:00:42;10.27;;;3.30;;
1296;SDS011;641;48.492;9.184;2023-03-21T09:03:08;8.63;;;3.90;;
1296;SDS011;641;48.492;9.184;2023-03-21T09:05:34;10.90;;;3.10;;
1296;SDS011;641;48.492;9.184;2023-03-21T09:08:01;8.13;;;2.70;;
1296;SDS011;641;48.492;9.184;2023-03-21T09:10:27;8.97;;;3.73;;
1296;SDS011;641;48.492;9.184;2023-03-21T09:12:53;10.67;;;3.20;;
1296;SDS011;641;48.492;9.184;2023-03-21T09:15:20;8.57;;;2.83;;
1296;SDS011;641;48.492;9.184;2023-03-21T09:17:48;7.87;;;2.60;;
1296;SDS011;641;48.492;9.184;2023-03-21T09:20:16;8.70;;;3.10;;
1296;SDS011;641;48.492;9.184;2023-03-21T09:22:48;8.43;;;2.57;;
1296;SDS011;641;48.492;9.184;2023-03-21T09:25:16;8.67;;;3.07;;
1296;SDS011;641;48.492;9.184;2023-03-21T09:27:42;8.73;;;2.47;;
1296;SDS011;641;48.492;9.184;2023-03-21T09:30:10;8.50;;;2.63;;
1296;SDS011;641;48.492;9.184;2023-03-21T09:32:36;7.33;;;2.70;;
1296;SDS011;641;48.492;9.184;2023-03-21T09:35:03;7.17;;;2.40;;
1296;SDS011;641;48.492;9.184;2023-03-21T09:37:29;8.03;;;2.60;;
1296;SDS011;641;48.492;9.184;2023-03-21T09:39:56;8.50;;;2.73;;
1296;SDS011;641;48.492;9.184;2023-03-21T09:47:46;7.33;;;2.40;;
1296;SDS011;641;48.492;9.184;2023-03-21T09:55:30;7.87;;;2.20;;
1296;SDS011;641;48.492;9.184;2023-03-21T10:00:45;8.53;;;2.60;;
1296;SDS011;641;48.492;9.184;2023-03-21T10:03:20;7.43;;;2.57;;
1296;SDS011;641;48.492;9.184;2023-03-21T10:05:53;10.90;;;2.77;;
1296;SDS011;641;48.492;9.184;2023-03-21T10:08:25;7.53;;;2.40;;
1296;SDS011;641;48.492;9.184;2023-03-21T10:10:55;7.13;;;2.00;;
1296;SDS011;641;48.492;9.184;2023-03-21T10:13:24;6.93;;;2.20;;
1296;SDS011;641;48.492;9.184;2023-03-21T10:15:55;7.10;;;2.33;;
1296;SDS011;641;48.492;9.184;2023-03-21T10:18:22;7.77;;;2.33;;
1296;SDS011;641;48.492;9.184;2023-03-21T10:20:49;9.10;;;2.40;;
1296;SDS011;641;48.492;9.184;2023-03-21T10:23:16;9.23;;;2.33;;
1296;SDS011;641;48.492;9.184;2023-03-21T10:25:48;7.60;;;2.50;;
1296;SDS011;641;48.492;9.184;2023-03-21T10:28:19;8.27;;;2.50;;
1296;SDS011;641;48.492;9.184;2023-03-21T10:30:48;7.87;;;2.07;;
1296;SDS011;641;48.492;9.184;2023-03-21T10:33:19;9.30;;;2.40;;
1296;SDS011;641;48.492;9.184;2023-03-21T10:35:52;8.70;;;2.90;;
1296;SDS011;641;48.492;9.184;2023-03-21T10:38:20;7.83;;;2.30;;
1296;SDS011;641;48.492;9.184;2023-03-21T10:40:47;7.63;;;2.37;;
1296;SDS011;641;48.492;9.184;2023-03-21T10:43:35;7.40;;;2.10;;
1296;SDS011;641;48.492;9.184;2023-03-21T10:46:20;7.90;;;2.10;;
1296;SDS011;641;48.492;9.184;2023-03-21T10:48:49;6.93;;;2.17;;
1296;SDS011;641;48.492;9.184;2023-03-21T10:51:20;9.10;;;2.20;;
1296;SDS011;641;48.492;9.184;2023-03-21T10:53:50;6.67;;;1.93;;
1296;SDS011;641;48.492;9.184;2023-03-21T10:56:18;7.90;;;2.63;;
1296;SDS011;641;48.492;9.184;2023-03-21T10:58:47;8.43;;;2.20;;
1296;SDS011;641;48.492;9.184;2023-03-21T11:01:23;8.30;;;2.50;;
1296;SDS011;641;48.492;9.184;2023-03-21T11:03:54;8.50;;;2.20;;
1296;SDS011;641;48.492;9.184;2023-03-21T11:06:25;9.70;;;2.80;;
1296;SDS011;641;48.492;9.184;2023-03-21T11:08:53;9.47;;;2.50;;
1296;SDS011;641;48.492;9.184;2023-03-21T11:11:27;8.47;;;2.80;;
1296;SDS011;641;48.492;9.184;2023-03-21T11:13:57;7.53;;;2.40;;
1296;SDS011;641;48.492;9.184;2023-03-21T11:16:30;9.30;;;3.00;;
1296;SDS011;641;48.492;9.184;2023-03-21T11:19:10;7.70;;;2.77;;
1296;SDS011;641;48.492;9.184;2023-03-21T11:21:37;7.23;;;2.23;;
1296;SDS011;641;48.492;9.184;2023-03-21T11:24:03;8.30;;;2.50;;
1296;SDS011;641;48.492;9.184;2023-03-21T11:26:31;8.33;;;2.77;;
1296;SDS011;641;48.492;9.184;2023-03-21T11:29:00;7.73;;;2.70;;
1296;SDS011;641;48.492;9.184;2023-03-21T11:31:39;11.40;;;2.37;;
1296;SDS011;641;48.492;9.184;2023-03-21T11:34:06;7.53;;;2.53;;
1296;SDS011;641;48.492;9.184;2023-03-21T11:36:36;7.70;;;2.90;;
1296;SDS011;641;48.492;9.184;2023-03-21T11:39:23;8.83;;;3.20;;
1296;SDS011;641;48.492;9.184;2023-03-21T11:41:53;7.90;;;2.77;;
1296;SDS011;641;48.492;9.184;2023-03-21T11:44:29;7.10;;;2.20;;
1296;SDS011;641;48.492;9.184;2023-03-21T11:46:56;7.80;;;2.50;;
1296;SDS011;641;48.492;9.184;2023-03-21T11:49:22;7.23;;;2.10;;
1296;SDS011;641;48.492;9.184;2023-03-21T11:52:00;8.37;;;2.43;;
1296;SDS011;641;48.492;9.184;2023-03-21T11:59:40;8.30;;;2.43;;
1296;SDS011;641;48.492;9.184;2023-03-21T12:02:25;9.37;;;2.60;;
1296;SDS011;641;48.492;9.184;2023-03-21T12:05:22;9.40;;;2.73;;
1296;SDS011;641;48.492;9.184;2023-03-21T12:08:04;12.43;;;3.10;;
1296;SDS011;641;48.492;9.184;2023-03-21T12:10:43;8.90;;;2.80;;
1296;SDS011;641;48.492;9.184;2023-03-21T12:18:50;9.30;;;2.40;;
1296;SDS011;641;48.492;9.184;2023-03-21T12:24:04;8.40;;;2.63;;
1296;SDS011;641;48.492;9.184;2023-03-21T12:26:34;7.43;;;2.57;;
1296;SDS011;641;48.492;9.184;2023-03-21T12:36:57;10.57;;;3.00;;
1296;SDS011;641;48.492;9.184;2023-03-21T12:39:38;9.40;;;3.00;;
1296;SDS011;641;48.492;9.184;2023-03-21T12:45:22;8.37;;;2.77;;
1296;SDS011;641;48.492;9.184;2023-03-21T12:48:48;9.43;;;2.90;;
1296;SDS011;641;48.492;9.184;2023-03-21T12:51:21;8.70;;;2.97;;
1296;SDS011;641;48.492;9.184;2023-03-21T12:56:53;8.60;;;2.80;;
1296;SDS011;641;48.492;9.184;2023-03-21T13:02:21;9.20;;;2.40;;
1296;SDS011;641;48.492;9.184;2023-03-21T13:05:04;7.70;;;2.30;;
1296;SDS011;641;48.492;9.184;2023-03-21T13:07:57;7.17;;;2.20;;
1296;SDS011;641;48.492;9.184;2023-03-21T13:10:35;8.80;;;2.67;;
1296;SDS011;641;48.492;9.184;2023-03-21T13:13:15;8.30;;;2.80;;
1296;SDS011;641;48.492;9.184;2023-03-21T13:21:01;8.53;;;2.50;;
1296;SDS011;641;48.492;9.184;2023-03-21T13:23:35;8.40;;;2.50;;
1296;SDS011;641;48.492;9.184;2023-03-21T13:26:11;7.67;;;2.37;;
1296;SDS011;641;48.492;9.184;2023-03-21T13:28:41;6.63;;;1.90;;
1296;SDS011;641;48.492;9.184;2023-03-21T13:31:30;6.90;;;2.30;;
1296;SDS011;641;48.492;9.184;2023-03-21T13:33:57;7.57;;;2.57;;
1296;SDS011;641;48.492;9.184;2023-03-21T13:36:27;8.47;;;2.20;;
1296;SDS011;641;48.492;9.184;2023-03-21T13:39:02;6.90;;;2.30;;
1296;SDS011;641;48.492;9.184;2023-03-21T13:41:47;9.33;;;1.90;;
1296;SDS011;641;48.492;9.184;2023-03-21T13:47:02;7.23;;;2.20;;
1296;SDS011;641;48.492;9.184;2023-03-21T13:49:32;6.30;;;1.37;;
1296;SDS011;641;48.492;9.184;2023-03-21T13:51:59;7.60;;;1.80;;
1296;SDS011;641;48.492;9.184;2023-03-21T13:54:27;7.43;;;1.60;;
1296;SDS011;641;48.492;9.184;2023-03-21T13:56:57;6.40;;;1.40;;
1296;SDS011;641;48.492;9.184;2023-03-21T14:02:11;6.70;;;1.40;;
1296;SDS011;641;48.492;9.184;2023-03-21T14:04:43;7.30;;;1.47;;
1296;SDS011;641;48.492;9.184;2023-03-21T14:07:11;8.47;;;1.40;;
1296;SDS011;641;48.492;9.184;2023-03-21T14:09:41;6.97;;;1.67;;
1296;SDS011;641;48.492;9.184;2023-03-21T14:12:15;7.93;;;1.60;;
1296;SDS011;641;48.492;9.184;2023-03-21T14:14:45;6.30;;;1.30;;
1296;SDS011;641;48.492;9.184;2023-03-21T14:17:12;7.37;;;1.30;;
1296;SDS011;641;48.492;9.184;2023-03-21T14:19:38;7.20;;;1.27;;
1296;SDS011;641;48.492;9.184;2023-03-21T14:22:09;8.83;;;1.30;;
1296;SDS011;641;48.492;9.184;2023-03-21T14:24:35;7.80;;;1.70;;
1296;SDS011;641;48.492;9.184;2023-03-21T14:27:02;6.67;;;1.57;;
1296;SDS011;641;48.492;9.184;2023-03-21T14:29:31;6.10;;;1.30;;
1296;SDS011;641;48.492;9.184;2023-03-21T14:31:58;6.17;;;1.23;;
1296;SDS011;641;48.492;9.184;2023-03-21T14:34:25;9.43;;;1.97;;
1296;SDS011;641;48.492;9.184;2023-03-21T14:36:51;6.60;;;1.40;;
1296;SDS011;641;48.492;9.184;2023-03-21T14:39:36;7.67;;;1.60;;
1296;SDS011;641;48.492;9.184;2023-03-21T14:42:03;6.73;;;1.20;;
1296;SDS011;641;48.492;9.184;2023-03-21T14:47:15;6.97;;;1.40;;
1296;SDS011;641;48.492;9.184;2023-03-21T14:49:42;6.10;;;1.20;;
1296;SDS011;641;48.492;9.184;2023-03-21T14:52:09;8.37;;;1.23;;
1296;SDS011;641;48.492;9.184;2023-03-21T14:54:38;6.07;;;1.03;;
1296;SDS011;641;48.492;9.184;2023-03-21T14:57:07;8.47;;;1.60;;
1296;SDS011;641;48.492;9.184;2023-03-21T14:59:35;9.40;;;1.57;;
1296;SDS011;641;48.492;9.184;2023-03-21T15:02:04;6.30;;;1.20;;
1296;SDS011;641;48.492;9.184;2023-03-21T15:04:30;7.83;;;1.67;;
1296;SDS011;641;48.492;9.184;2023-03-21T15:06:58;6.07;;;1.27;;
1296;SDS011;641;48.492;9.184;2023-03-21T15:09:28;6.20;;;1.03;;
1296;SDS011;641;48.492;9.184;2023-03-21T15:11:55;6.10;;;0.90;;
1296;SDS011;641;48.492;9.184;2023-03-21T15:14:23;7.40;;;1.00;;
1296;SDS011;641;48.492;9.184;2023-03-21T15:16:50;6.77;;;1.20;;
1296;SDS011;641;48.492;9.184;2023-03-21T15:19:17;6.00;;;1.10;;
1296;SDS011;641;48.492;9.184;2023-03-21T15:21:46;7.37;;;0.90;;
1296;SDS011;641;48.492;9.184;2023-03-21T15:24:15;6.47;;;1.30;;
1296;SDS011;641;48.492;9.184;2023-03-21T15:26:45;6.00;;;1.23;;
1296;SDS011;641;48.492;9.184;2023-03-21T15:29:12;11.07;;;1.33;;
1296;SDS011;641;48.492;9.184;2023-03-21T15:31:40;6.10;;;0.90;;
1296;SDS011;641;48.492;9.184;2023-03-21T15:34:06;6.20;;;0.90;;
1296;SDS011;641;48.492;9.184;2023-03-21T15:36:34;5.80;;;0.87;;
1296;SDS011;641;48.492;9.184;2023-03-21T15:39:04;7.70;;;1.20;;
1296;SDS011;641;48.492;9.184;2023-03-21T15:41:31;5.57;;;0.80;;
1296;SDS011;641;48.492;9.184;2023-03-21T15:46:43;6.50;;;1.23;;
1296;SDS011;641;48.492;9.184;2023-03-21T15:52:05;7.00;;;0.73;;
1296;SDS011;641;48.492;9.184;2023-03-21T15:54:33;7.33;;;1.13;;
1296;SDS011;641;48.492;9.184;2023-03-21T15:57:02;7.60;;;1.13;;
1296;SDS011;641;48.492;9.184;2023-03-21T15:59:34;6.50;;;1.30;;
1296;SDS011;641;48.492;9.184;2023-03-21T16:02:02;7.53;;;1.53;;
1296;SDS011;641;48.492;9.184;2023-03-21T16:04:29;9.17;;;1.23;;
1296;SDS011;641;48.492;9.184;2023-03-21T16:07:00;7.33;;;1.10;;
1296;SDS011;641;48.492;9.184;2023-03-21T16:09:27;6.40;;;1.10;;
1296;SDS011;641;48.492;9.184;2023-03-21T16:12:01;6.70;;;1.17;;
1296;SDS011;641;48.492;9.184;2023-03-21T16:14:30;8.23;;;0.97;;
1296;SDS011;641;48.492;9.184;2023-03-21T16:16:56;8.87;;;1.20;;
1296;SDS011;641;48.492;9.184;2023-03-21T16:19:23;7.10;;;1.40;;
1296;SDS011;641;48.492;9.184;2023-03-21T16:21:51;5.70;;;0.90;;
1296;SDS011;641;48.492;9.184;2023-03-21T16:24:17;5.60;;;0.77;;
1296;SDS011;641;48.492;9.184;2023-03-21T16:26:46;8.43;;;1.53;;
1296;SDS011;641;48.492;9.184;2023-03-21T16:29:17;6.87;;;1.30;;
1296;SDS011;641;48.492;9.184;2023-03-21T16:31:46;8.70;;;1.73;;
1296;SDS011;641;48.492;9.184;2023-03-21T16:34:12;6.67;;;1.00;;
1296;SDS011;641;48.492;9.184;2023-03-21T16:36:41;6.80;;;1.07;;
1296;SDS011;641;48.492;9.184;2023-03-21T16:39:14;6.20;;;1.23;;
1296;SDS011;641;48.492;9.184;2023-03-21T16:41:43;7.23;;;1.20;;
1296;SDS011;641;48.492;9.184;2023-03-21T16:44:20;5.80;;;1.10;;
1296;SDS011;641;48.492;9.184;2023-03-21T16:49:48;6.27;;;1.10;;
1296;SDS011;641;48.492;9.184;2023-03-21T16:52:41;9.23;;;1.50;;
1296;SDS011;641;48.492;9.184;2023-03-21T16:58:21;8.90;;;1.67;;
1296;SDS011;641;48.492;9.184;2023-03-21T17:00:50;8.53;;;1.97;;
1296;SDS011;641;48.492;9.184;2023-03-21T17:03:33;7.50;;;1.40;;
1296;SDS011;641;48.492;9.184;2023-03-21T17:05:59;6.80;;;1.67;;
1296;SDS011;641;48.492;9.184;2023-03-21T17:08:45;7.30;;;1.40;;
1296;SDS011;641;48.492;9.184;2023-03-21T17:11:29;15.67;;;8.03;;
1296;SDS011;641;48.492;9.184;2023-03-21T17:14:31;31.40;;;18.60;;